sensor_id;sensor_type;location;lat;lon;timestamp;temperature;humidity
16785;DHT22;8509;52.178;5.404;2023-06-26T00:00:29;23.90;99.90
16785;DHT22;8509;52.178;5.404;2023-06-26T00:02:55;23.80;99.90
16785;DHT22;8509;52.178;5.404;2023-06-26T00:05:20;23.80;99.90
16785;DHT22;8509;52.178;5.404;2023-06-26T00:07:46;23.80;99.90
16785;DHT22;8509;52.178;5.404;2023-06-26T00:10:12;23.70;99.90
16785;DHT22;8509;52.178;5.404;2023-06-26T00:12:37;23.80;99.90
16785;DHT22;8509;52.178;5.404;2023-06-26T00:15:03;23.70;99.90
16785;DHT22;8509;52.178;5.404;2023-06-26T00:17:31;23.60;99.90
16785;DHT22;8509;52.178;5.404;2023-06-26T00:20:02;23.60;99.90
16785;DHT22;8509;52.178;5.404;2023-06-26T00:22:28;23.40;99.90
16785;DHT22;8509;52.178;5.404;2023-06-26T00:24:53;23.50;99.90
16785;DHT22;8509;52.178;5.404;2023-06-26T00:27:19;23.40;99.90
16785;DHT22;8509;52.178;5.404;2023-06-26T00:29:45;23.50;99.90
16785;DHT22;8509;52.178;5.404;2023-06-26T00:32:10;23.50;99.90
16785;DHT22;8509;52.178;5.404;2023-06-26T00:34:36;23.50;99.90
16785;DHT22;8509;52.178;5.404;2023-06-26T00:37:02;23.40;99.90
16785;DHT22;8509;52.178;5.404;2023-06-26T00:39:28;23.40;99.90
16785;DHT22;8509;52.178;5.404;2023-06-26T00:41:53;23.40;99.90
16785;DHT22;8509;52.178;5.404;2023-06-26T00:44:19;23.40;99.90
16785;DHT22;8509;52.178;5.404;2023-06-26T00:46:45;23.40;99.90
16785;DHT22;8509;52.178;5.404;2023-06-26T00:49:12;23.40;99.90
16785;DHT22;8509;52.178;5.404;2023-06-26T00:51:38;23.40;99.90
16785;DHT22;8509;52.178;5.404;2023-06-26T00:54:03;23.40;99.90
16785;DHT22;8509;52.178;5.404;2023-06-26T00:56:31;23.40;99.90
16785;DHT22;8509;52.178;5.404;2023-06-26T00:58:57;23.30;99.90
16785;DHT22;8509;52.178;5.404;2023-06-26T01:01:23;23.40;99.90
16785;DHT22;8509;52.178;5.404;2023-06-26T01:03:51;23.30;99.90
16785;DHT22;8509;52.178;5.404;2023-06-26T01:06:20;23.30;99.90
16785;DHT22;8509;52.178;5.404;2023-06-26T01:08:47;23.20;99.90
16785;DHT22;8509;52.178;5.404;2023-06-26T01:11:14;23.10;99.90
16785;DHT22;8509;52.178;5.404;2023-06-26T01:13:42;23.10;99.90
16785;DHT22;8509;52.178;5.404;2023-06-26T01:16:10;23.30;99.90
16785;DHT22;8509;52.178;5.404;2023-06-26T01:18:38;23.30;99.90
16785;DHT22;8509;52.178;5.404;2023-06-26T01:21:08;23.40;99.90
16785;DHT22;8509;52.178;5.404;2023-06-26T01:23:39;23.50;99.90
16785;DHT22;8509;52.178;5.404;2023-06-26T01:26:22;23.50;99.90
16785;DHT22;8509;52.178;5.404;2023-06-26T01:28:50;23.40;99.90
16785;DHT22;8509;52.178;5.404;2023-06-26T01:31:17;23.50;99.90
16785;DHT22;8509;52.178;5.404;2023-06-26T01:33:43;23.40;99.90
16785;DHT22;8509;52.178;5.404;2023-06-26T01:36:10;23.40;99.90
16785;DHT22;8509;52.178;5.404;2023-06-26T01:38:36;23.40;99.90
16785;DHT22;8509;52.178;5.404;2023-06-26T01:41:03;23.40;99.90
16785;DHT22;8509;52.178;5.404;2023-06-26T01:46:24;23.30;99.90
16785;DHT22;8509;52.178;5.404;2023-06-26T01:49:06;23.10;99.90
16785;DHT22;8509;52.178;5.404;2023-06-26T01:51:41;23.00;99.90
16785;DHT22;8509;52.178;5.404;2023-06-26T01:54:12;23.00;99.90
16785;DHT22;8509;52.178;5.404;2023-06-26T01:56:39;23.10;99.90
16785;DHT22;8509;52.178;5.404;2023-06-26T01:59:06;22.90;99.90
16785;DHT22;8509;52.178;5.404;2023-06-26T02:01:33;22.80;99.90
16785;DHT22;8509;52.178;5.404;2023-06-26T02:03:59;22.80;99.90
16785;DHT22;8509;52.178;5.404;2023-06-26T02:06:25;22.60;99.90
16785;DHT22;8509;52.178;5.404;2023-06-26T02:08:51;22.60;99.90
16785;DHT22;8509;52.178;5.404;2023-06-26T02:11:17;22.60;99.90
16785;DHT22;8509;52.178;5.404;2023-06-26T02:13:42;22.40;99.90
16785;DHT22;8509;52.178;5.404;2023-06-26T02:16:08;22.50;99.90
16785;DHT22;8509;52.178;5.404;2023-06-26T02:18:34;22.40;99.90
16785;DHT22;8509;52.178;5.404;2023-06-26T02:21:00;22.20;99.90
16785;DHT22;8509;52.178;5.404;2023-06-26T02:23:27;22.30;99.90
16785;DHT22;8509;52.178;5.404;2023-06-26T02:25:53;22.30;99.90
16785;DHT22;8509;52.178;5.404;2023-06-26T02:28:18;22.20;99.90
16785;DHT22;8509;52.178;5.404;2023-06-26T02:30:44;22.10;99.90
16785;DHT22;8509;52.178;5.404;2023-06-26T02:33:10;22.10;99.90
16785;DHT22;8509;52.178;5.404;2023-06-26T02:35:35;21.90;99.90
16785;DHT22;8509;52.178;5.404;2023-06-26T02:38:01;22.00;99.90
16785;DHT22;8509;52.178;5.404;2023-06-26T02:40:27;22.00;99.90
16785;DHT22;8509;52.178;5.404;2023-06-26T02:42:52;22.00;99.90
16785;DHT22;8509;52.178;5.404;2023-06-26T02:45:18;22.00;99.90
16785;DHT22;8509;52.178;5.404;2023-06-26T02:47:44;22.00;99.90
16785;DHT22;8509;52.178;5.404;2023-06-26T02:50:10;22.10;99.90
16785;DHT22;8509;52.178;5.404;2023-06-26T02:52:35;22.00;99.90
16785;DHT22;8509;52.178;5.404;2023-06-26T02:55:01;22.10;99.90
16785;DHT22;8509;52.178;5.404;2023-06-26T02:57:27;22.00;99.90
16785;DHT22;8509;52.178;5.404;2023-06-26T02:59:52;22.00;99.90
16785;DHT22;8509;52.178;5.404;2023-06-26T03:02:18;21.90;99.90
16785;DHT22;8509;52.178;5.404;2023-06-26T03:04:44;21.90;99.90
16785;DHT22;8509;52.178;5.404;2023-06-26T03:07:09;21.80;99.90
16785;DHT22;8509;52.178;5.404;2023-06-26T03:09:35;21.80;99.90
16785;DHT22;8509;52.178;5.404;2023-06-26T03:12:01;21.80;99.90
16785;DHT22;8509;52.178;5.404;2023-06-26T03:14:27;21.80;99.90
16785;DHT22;8509;52.178;5.404;2023-06-26T03:16:53;21.80;99.90
16785;DHT22;8509;52.178;5.404;2023-06-26T03:19:22;21.80;99.90
16785;DHT22;8509;52.178;5.404;2023-06-26T03:21:48;21.80;99.90
16785;DHT22;8509;52.178;5.404;2023-06-26T03:24:13;21.70;99.90
16785;DHT22;8509;52.178;5.404;2023-06-26T03:26:39;21.50;99.90
16785;DHT22;8509;52.178;5.404;2023-06-26T03:29:05;21.70;99.90
16785;DHT22;8509;52.178;5.404;2023-06-26T03:31:31;21.60;99.90
16785;DHT22;8509;52.178;5.404;2023-06-26T03:33:56;21.70;99.90
16785;DHT22;8509;52.178;5.404;2023-06-26T03:36:22;21.70;99.90
16785;DHT22;8509;52.178;5.404;2023-06-26T03:38:48;21.70;99.90
16785;DHT22;8509;52.178;5.404;2023-06-26T03:41:13;21.70;99.90
16785;DHT22;8509;52.178;5.404;2023-06-26T03:43:39;21.50;99.90
16785;DHT22;8509;52.178;5.404;2023-06-26T03:46:05;21.50;99.90
16785;DHT22;8509;52.178;5.404;2023-06-26T03:48:30;21.60;99.90
16785;DHT22;8509;52.178;5.404;2023-06-26T03:50:57;21.50;99.90
16785;DHT22;8509;52.178;5.404;2023-06-26T03:53:23;21.30;99.90
16785;DHT22;8509;52.178;5.404;2023-06-26T03:55:49;21.20;99.90
16785;DHT22;8509;52.178;5.404;2023-06-26T03:58:15;21.30;99.90
16785;DHT22;8509;52.178;5.404;2023-06-26T04:00:41;21.30;99.90
16785;DHT22;8509;52.178;5.404;2023-06-26T04:03:06;21.30;99.90
16785;DHT22;8509;52.178;5.404;2023-06-26T04:05:32;21.40;99.90
16785;DHT22;8509;52.178;5.404;2023-06-26T04:07:58;21.40;99.90
16785;DHT22;8509;52.178;5.404;2023-06-26T04:10:23;21.50;99.90
16785;DHT22;8509;52.178;5.404;2023-06-26T04:12:49;21.40;99.90
16785;DHT22;8509;52.178;5.404;2023-06-26T04:15:15;21.30;99.90
16785;DHT22;8509;52.178;5.404;2023-06-26T04:17:40;21.30;99.90
16785;DHT22;8509;52.178;5.404;2023-06-26T04:20:08;21.30;99.90
16785;DHT22;8509;52.178;5.404;2023-06-26T04:22:34;21.30;99.90
16785;DHT22;8509;52.178;5.404;2023-06-26T04:25:03;21.30;99.90
16785;DHT22;8509;52.178;5.404;2023-06-26T04:27:29;21.60;99.90
16785;DHT22;8509;52.178;5.404;2023-06-26T04:29:55;22.10;99.90
16785;DHT22;8509;52.178;5.404;2023-06-26T04:32:21;22.80;99.90
16785;DHT22;8509;52.178;5.404;2023-06-26T04:34:47;22.90;99.90
16785;DHT22;8509;52.178;5.404;2023-06-26T04:37:13;23.20;99.90
16785;DHT22;8509;52.178;5.404;2023-06-26T04:39:41;24.10;99.90
16785;DHT22;8509;52.178;5.404;2023-06-26T04:42:07;24.30;99.90
16785;DHT22;8509;52.178;5.404;2023-06-26T04:44:39;24.70;99.90
16785;DHT22;8509;52.178;5.404;2023-06-26T04:47:06;24.80;99.90
16785;DHT22;8509;52.178;5.404;2023-06-26T04:49:32;24.70;99.90
16785;DHT22;8509;52.178;5.404;2023-06-26T04:51:57;24.90;99.90
16785;DHT22;8509;52.178;5.404;2023-06-26T04:54:25;24.80;99.90
16785;DHT22;8509;52.178;5.404;2023-06-26T04:56:51;24.70;99.90
16785;DHT22;8509;52.178;5.404;2023-06-26T04:59:17;24.60;99.90
16785;DHT22;8509;52.178;5.404;2023-06-26T05:01:42;24.40;99.90
16785;DHT22;8509;52.178;5.404;2023-06-26T05:04:14;24.20;99.90
16785;DHT22;8509;52.178;5.404;2023-06-26T05:06:40;24.30;99.90
16785;DHT22;8509;52.178;5.404;2023-06-26T05:09:06;24.10;99.90
16785;DHT22;8509;52.178;5.404;2023-06-26T05:11:32;24.00;99.90
16785;DHT22;8509;52.178;5.404;2023-06-26T05:13:58;24.20;99.90
16785;DHT22;8509;52.178;5.404;2023-06-26T05:16:23;24.50;99.90
16785;DHT22;8509;52.178;5.404;2023-06-26T05:18:49;24.50;99.90
16785;DHT22;8509;52.178;5.404;2023-06-26T05:21:15;25.00;99.90
16785;DHT22;8509;52.178;5.404;2023-06-26T05:23:42;25.00;99.90
16785;DHT22;8509;52.178;5.404;2023-06-26T05:26:11;25.10;99.90
16785;DHT22;8509;52.178;5.404;2023-06-26T05:28:38;25.30;99.90
16785;DHT22;8509;52.178;5.404;2023-06-26T05:31:04;25.20;99.90
16785;DHT22;8509;52.178;5.404;2023-06-26T05:33:31;24.90;99.90
16785;DHT22;8509;52.178;5.404;2023-06-26T05:36:00;25.30;99.90
16785;DHT22;8509;52.178;5.404;2023-06-26T05:38:27;25.70;99.90
16785;DHT22;8509;52.178;5.404;2023-06-26T05:40:53;26.10;99.90
16785;DHT22;8509;52.178;5.404;2023-06-26T05:43:19;26.50;99.90
16785;DHT22;8509;52.178;5.404;2023-06-26T05:45:48;26.50;99.90
16785;DHT22;8509;52.178;5.404;2023-06-26T05:48:14;27.20;99.90
16785;DHT22;8509;52.178;5.404;2023-06-26T05:50:40;27.50;99.90
16785;DHT22;8509;52.178;5.404;2023-06-26T05:53:08;28.00;99.90
16785;DHT22;8509;52.178;5.404;2023-06-26T05:55:34;28.50;99.90
16785;DHT22;8509;52.178;5.404;2023-06-26T05:58:02;28.90;99.90
16785;DHT22;8509;52.178;5.404;2023-06-26T06:00:28;28.50;99.90
16785;DHT22;8509;52.178;5.404;2023-06-26T06:02:54;28.80;99.90
16785;DHT22;8509;52.178;5.404;2023-06-26T06:05:23;29.20;99.90
16785;DHT22;8509;52.178;5.404;2023-06-26T06:07:49;29.10;99.90
16785;DHT22;8509;52.178;5.404;2023-06-26T06:10:15;29.20;99.90
16785;DHT22;8509;52.178;5.404;2023-06-26T06:12:41;28.90;99.90
16785;DHT22;8509;52.178;5.404;2023-06-26T06:15:07;28.70;99.90
16785;DHT22;8509;52.178;5.404;2023-06-26T06:17:33;28.70;99.90
16785;DHT22;8509;52.178;5.404;2023-06-26T06:19:59;29.10;99.90
16785;DHT22;8509;52.178;5.404;2023-06-26T06:22:26;29.30;99.90
16785;DHT22;8509;52.178;5.404;2023-06-26T06:24:53;29.40;99.90
16785;DHT22;8509;52.178;5.404;2023-06-26T06:27:18;29.20;99.90
16785;DHT22;8509;52.178;5.404;2023-06-26T06:29:44;29.00;99.90
16785;DHT22;8509;52.178;5.404;2023-06-26T06:32:10;29.00;99.90
16785;DHT22;8509;52.178;5.404;2023-06-26T06:34:36;29.30;99.90
16785;DHT22;8509;52.178;5.404;2023-06-26T06:37:03;29.70;99.90
16785;DHT22;8509;52.178;5.404;2023-06-26T06:39:28;30.40;99.90
16785;DHT22;8509;52.178;5.404;2023-06-26T06:41:54;30.80;99.90
16785;DHT22;8509;52.178;5.404;2023-06-26T06:44:20;30.50;99.90
16785;DHT22;8509;52.178;5.404;2023-06-26T06:46:47;30.00;99.90
16785;DHT22;8509;52.178;5.404;2023-06-26T06:49:12;29.80;99.90
16785;DHT22;8509;52.178;5.404;2023-06-26T06:51:38;29.50;99.90
16785;DHT22;8509;52.178;5.404;2023-06-26T06:54:04;28.90;99.90
16785;DHT22;8509;52.178;5.404;2023-06-26T06:56:29;28.00;99.90
16785;DHT22;8509;52.178;5.404;2023-06-26T06:58:55;27.40;99.90
16785;DHT22;8509;52.178;5.404;2023-06-26T07:01:21;27.10;99.90
16785;DHT22;8509;52.178;5.404;2023-06-26T07:03:48;27.60;99.90
16785;DHT22;8509;52.178;5.404;2023-06-26T07:06:14;28.60;99.90
16785;DHT22;8509;52.178;5.404;2023-06-26T07:08:40;29.10;99.90
16785;DHT22;8509;52.178;5.404;2023-06-26T07:11:06;29.80;99.90
16785;DHT22;8509;52.178;5.404;2023-06-26T07:13:31;30.50;99.90
16785;DHT22;8509;52.178;5.404;2023-06-26T07:15:57;31.10;99.90
16785;DHT22;8509;52.178;5.404;2023-06-26T07:18:22;31.70;99.90
16785;DHT22;8509;52.178;5.404;2023-06-26T07:20:48;31.90;99.90
16785;DHT22;8509;52.178;5.404;2023-06-26T07:23:14;30.80;99.90
16785;DHT22;8509;52.178;5.404;2023-06-26T07:25:45;29.80;99.90
16785;DHT22;8509;52.178;5.404;2023-06-26T07:28:11;29.00;99.90
16785;DHT22;8509;52.178;5.404;2023-06-26T07:30:38;29.00;99.90
16785;DHT22;8509;52.178;5.404;2023-06-26T07:33:04;29.20;99.90
16785;DHT22;8509;52.178;5.404;2023-06-26T07:35:29;29.60;99.90
16785;DHT22;8509;52.178;5.404;2023-06-26T07:37:55;30.40;99.90
16785;DHT22;8509;52.178;5.404;2023-06-26T07:40:21;30.70;99.90
16785;DHT22;8509;52.178;5.404;2023-06-26T07:42:47;30.80;99.90
16785;DHT22;8509;52.178;5.404;2023-06-26T07:45:13;31.60;99.90
16785;DHT22;8509;52.178;5.404;2023-06-26T07:47:40;31.90;99.90
16785;DHT22;8509;52.178;5.404;2023-06-26T07:50:07;31.40;99.90
16785;DHT22;8509;52.178;5.404;2023-06-26T07:52:38;31.70;99.90
16785;DHT22;8509;52.178;5.404;2023-06-26T07:55:05;32.30;99.90
16785;DHT22;8509;52.178;5.404;2023-06-26T07:57:47;32.80;99.90
16785;DHT22;8509;52.178;5.404;2023-06-26T08:00:14;31.90;99.90
16785;DHT22;8509;52.178;5.404;2023-06-26T08:02:43;30.70;99.90
16785;DHT22;8509;52.178;5.404;2023-06-26T08:05:09;29.70;99.90
16785;DHT22;8509;52.178;5.404;2023-06-26T08:07:37;29.30;99.90
16785;DHT22;8509;52.178;5.404;2023-06-26T08:10:03;29.20;99.90
16785;DHT22;8509;52.178;5.404;2023-06-26T08:12:37;30.10;99.90
16785;DHT22;8509;52.178;5.404;2023-06-26T08:15:07;31.00;99.90
16785;DHT22;8509;52.178;5.404;2023-06-26T08:17:33;31.50;99.90
16785;DHT22;8509;52.178;5.404;2023-06-26T08:20:06;31.50;99.90
16785;DHT22;8509;52.178;5.404;2023-06-26T08:22:47;31.30;99.90
16785;DHT22;8509;52.178;5.404;2023-06-26T08:25:19;31.20;99.90
16785;DHT22;8509;52.178;5.404;2023-06-26T08:27:45;31.90;99.90
16785;DHT22;8509;52.178;5.404;2023-06-26T08:30:14;33.00;99.90
16785;DHT22;8509;52.178;5.404;2023-06-26T08:32:43;33.10;99.90
16785;DHT22;8509;52.178;5.404;2023-06-26T08:35:09;33.50;99.90
16785;DHT22;8509;52.178;5.404;2023-06-26T08:37:36;33.80;99.90
16785;DHT22;8509;52.178;5.404;2023-06-26T08:40:03;32.90;99.90
16785;DHT22;8509;52.178;5.404;2023-06-26T08:42:29;33.10;99.90
16785;DHT22;8509;52.178;5.404;2023-06-26T08:44:55;33.40;99.90
16785;DHT22;8509;52.178;5.404;2023-06-26T08:47:21;33.60;99.90
16785;DHT22;8509;52.178;5.404;2023-06-26T08:50:07;32.40;99.90
16785;DHT22;8509;52.178;5.404;2023-06-26T08:52:37;30.70;99.90
16785;DHT22;8509;52.178;5.404;2023-06-26T08:55:09;29.80;99.90
16785;DHT22;8509;52.178;5.404;2023-06-26T08:57:37;30.30;99.90
16785;DHT22;8509;52.178;5.404;2023-06-26T09:00:03;31.10;99.90
16785;DHT22;8509;52.178;5.404;2023-06-26T09:02:30;31.20;99.90
16785;DHT22;8509;52.178;5.404;2023-06-26T09:04:57;32.20;99.90
16785;DHT22;8509;52.178;5.404;2023-06-26T09:07:23;33.10;99.90
16785;DHT22;8509;52.178;5.404;2023-06-26T09:09:49;32.40;99.90
16785;DHT22;8509;52.178;5.404;2023-06-26T09:12:14;33.00;99.90
16785;DHT22;8509;52.178;5.404;2023-06-26T09:14:41;32.20;99.40
16785;DHT22;8509;52.178;5.404;2023-06-26T09:17:07;30.80;99.90
16785;DHT22;8509;52.178;5.404;2023-06-26T09:19:33;30.30;99.90
16785;DHT22;8509;52.178;5.404;2023-06-26T09:22:00;30.20;99.90
16785;DHT22;8509;52.178;5.404;2023-06-26T09:24:26;30.20;99.90
16785;DHT22;8509;52.178;5.404;2023-06-26T09:26:52;30.40;99.90
16785;DHT22;8509;52.178;5.404;2023-06-26T09:29:19;30.20;99.90
16785;DHT22;8509;52.178;5.404;2023-06-26T09:31:45;29.70;99.90
16785;DHT22;8509;52.178;5.404;2023-06-26T09:34:11;29.20;99.90
16785;DHT22;8509;52.178;5.404;2023-06-26T09:36:37;28.90;99.90
16785;DHT22;8509;52.178;5.404;2023-06-26T09:39:03;28.60;99.90
16785;DHT22;8509;52.178;5.404;2023-06-26T09:41:34;28.50;99.90
16785;DHT22;8509;52.178;5.404;2023-06-26T09:44:01;29.00;99.90
16785;DHT22;8509;52.178;5.404;2023-06-26T09:46:29;29.10;99.90
16785;DHT22;8509;52.178;5.404;2023-06-26T09:51:24;28.80;99.90
16785;DHT22;8509;52.178;5.404;2023-06-26T09:53:50;28.60;99.90
16785;DHT22;8509;52.178;5.404;2023-06-26T09:56:17;28.70;99.90
16785;DHT22;8509;52.178;5.404;2023-06-26T09:58:55;28.10;99.90
16785;DHT22;8509;52.178;5.404;2023-06-26T10:01:23;28.10;99.90
16785;DHT22;8509;52.178;5.404;2023-06-26T10:03:49;28.50;99.90
16785;DHT22;8509;52.178;5.404;2023-06-26T10:06:19;28.70;99.90
16785;DHT22;8509;52.178;5.404;2023-06-26T10:08:45;28.60;99.90
16785;DHT22;8509;52.178;5.404;2023-06-26T10:11:16;28.10;99.90
16785;DHT22;8509;52.178;5.404;2023-06-26T10:13:43;27.90;99.90
16785;DHT22;8509;52.178;5.404;2023-06-26T10:16:12;28.00;99.90
16785;DHT22;8509;52.178;5.404;2023-06-26T10:18:39;28.40;99.90
16785;DHT22;8509;52.178;5.404;2023-06-26T10:21:06;28.60;99.90
16785;DHT22;8509;52.178;5.404;2023-06-26T10:23:34;28.30;99.90
16785;DHT22;8509;52.178;5.404;2023-06-26T10:26:02;27.70;99.90
16785;DHT22;8509;52.178;5.404;2023-06-26T10:28:30;27.50;99.90
16785;DHT22;8509;52.178;5.404;2023-06-26T10:30:58;27.70;99.90
16785;DHT22;8509;52.178;5.404;2023-06-26T10:33:26;27.80;99.90
16785;DHT22;8509;52.178;5.404;2023-06-26T10:35:53;27.50;99.90
16785;DHT22;8509;52.178;5.404;2023-06-26T10:38:19;27.70;99.90
16785;DHT22;8509;52.178;5.404;2023-06-26T10:40:48;27.70;99.90
16785;DHT22;8509;52.178;5.404;2023-06-26T10:43:15;27.60;99.90
16785;DHT22;8509;52.178;5.404;2023-06-26T10:45:47;28.00;99.90
16785;DHT22;8509;52.178;5.404;2023-06-26T10:48:18;28.30;99.90
16785;DHT22;8509;52.178;5.404;2023-06-26T10:50:46;28.30;99.90
16785;DHT22;8509;52.178;5.404;2023-06-26T10:53:16;28.00;99.90
16785;DHT22;8509;52.178;5.404;2023-06-26T10:56:00;27.50;99.90
16785;DHT22;8509;52.178;5.404;2023-06-26T11:04:03;27.30;99.90
16785;DHT22;8509;52.178;5.404;2023-06-26T11:06:30;27.20;99.90
16785;DHT22;8509;52.178;5.404;2023-06-26T11:09:08;27.30;99.90
16785;DHT22;8509;52.178;5.404;2023-06-26T11:14:19;27.50;99.90
16785;DHT22;8509;52.178;5.404;2023-06-26T11:16:50;27.50;99.90
16785;DHT22;8509;52.178;5.404;2023-06-26T11:19:18;27.50;99.90
16785;DHT22;8509;52.178;5.404;2023-06-26T11:21:44;27.60;99.90
16785;DHT22;8509;52.178;5.404;2023-06-26T11:24:12;27.60;99.90
16785;DHT22;8509;52.178;5.404;2023-06-26T11:26:44;27.50;99.90
16785;DHT22;8509;52.178;5.404;2023-06-26T11:29:11;27.50;99.90
16785;DHT22;8509;52.178;5.404;2023-06-26T11:31:39;27.40;99.90
16785;DHT22;8509;52.178;5.404;2023-06-26T11:34:08;27.70;99.90
16785;DHT22;8509;52.178;5.404;2023-06-26T11:36:35;27.70;99.90
16785;DHT22;8509;52.178;5.404;2023-06-26T11:39:03;27.70;99.90
16785;DHT22;8509;52.178;5.404;2023-06-26T11:41:32;27.70;99.90
16785;DHT22;8509;52.178;5.404;2023-06-26T11:44:05;27.70;99.90
16785;DHT22;8509;52.178;5.404;2023-06-26T11:46:32;27.70;99.90
16785;DHT22;8509;52.178;5.404;2023-06-26T11:48:58;27.70;99.90
16785;DHT22;8509;52.178;5.404;2023-06-26T11:51:23;27.30;99.90
16785;DHT22;8509;52.178;5.404;2023-06-26T11:53:52;27.30;99.90
16785;DHT22;8509;52.178;5.404;2023-06-26T11:56:18;27.50;99.90
16785;DHT22;8509;52.178;5.404;2023-06-26T12:01:36;27.00;99.40
16785;DHT22;8509;52.178;5.404;2023-06-26T12:04:04;27.00;99.40
16785;DHT22;8509;52.178;5.404;2023-06-26T12:06:32;26.90;99.80
16785;DHT22;8509;52.178;5.404;2023-06-26T12:09:00;26.90;99.90
16785;DHT22;8509;52.178;5.404;2023-06-26T12:11:27;27.00;99.60
16785;DHT22;8509;52.178;5.404;2023-06-26T12:13:55;26.90;99.90
16785;DHT22;8509;52.178;5.404;2023-06-26T12:16:20;26.90;99.90
16785;DHT22;8509;52.178;5.404;2023-06-26T12:18:47;26.70;99.50
16785;DHT22;8509;52.178;5.404;2023-06-26T12:24:09;27.00;99.90
16785;DHT22;8509;52.178;5.404;2023-06-26T12:26:35;27.00;99.80
16785;DHT22;8509;52.178;5.404;2023-06-26T12:29:09;27.10;99.80
16785;DHT22;8509;52.178;5.404;2023-06-26T12:31:40;27.10;99.40
16785;DHT22;8509;52.178;5.404;2023-06-26T12:34:14;26.90;99.40
16785;DHT22;8509;52.178;5.404;2023-06-26T12:36:50;26.70;99.60
16785;DHT22;8509;52.178;5.404;2023-06-26T12:39:17;26.60;99.30
16785;DHT22;8509;52.178;5.404;2023-06-26T12:42:02;26.60;99.90
16785;DHT22;8509;52.178;5.404;2023-06-26T12:44:29;26.70;99.90
16785;DHT22;8509;52.178;5.404;2023-06-26T12:46:57;26.80;99.70
16785;DHT22;8509;52.178;5.404;2023-06-26T12:49:34;26.80;98.90
16785;DHT22;8509;52.178;5.404;2023-06-26T12:52:01;26.70;99.70
16785;DHT22;8509;52.178;5.404;2023-06-26T12:54:27;26.70;99.90
16785;DHT22;8509;52.178;5.404;2023-06-26T12:56:53;26.80;99.90
16785;DHT22;8509;52.178;5.404;2023-06-26T12:59:21;26.60;99.90
16785;DHT22;8509;52.178;5.404;2023-06-26T13:01:48;26.70;99.90
16785;DHT22;8509;52.178;5.404;2023-06-26T13:04:14;26.40;99.90
16785;DHT22;8509;52.178;5.404;2023-06-26T13:06:42;26.10;99.90
16785;DHT22;8509;52.178;5.404;2023-06-26T13:09:07;25.80;99.90
16785;DHT22;8509;52.178;5.404;2023-06-26T13:11:34;25.80;99.90
16785;DHT22;8509;52.178;5.404;2023-06-26T13:14:01;25.70;99.90
16785;DHT22;8509;52.178;5.404;2023-06-26T13:16:27;25.50;99.90
16785;DHT22;8509;52.178;5.404;2023-06-26T13:18:52;25.40;99.90
16785;DHT22;8509;52.178;5.404;2023-06-26T13:21:18;25.30;99.90
16785;DHT22;8509;52.178;5.404;2023-06-26T13:23:44;25.20;99.90
16785;DHT22;8509;52.178;5.404;2023-06-26T13:26:11;25.30;99.90
16785;DHT22;8509;52.178;5.404;2023-06-26T13:28:37;25.50;99.90
16785;DHT22;8509;52.178;5.404;2023-06-26T13:31:03;25.60;99.90
16785;DHT22;8509;52.178;5.404;2023-06-26T13:33:29;25.60;99.90
16785;DHT22;8509;52.178;5.404;2023-06-26T13:35:55;25.60;99.90
16785;DHT22;8509;52.178;5.404;2023-06-26T13:38:21;25.30;99.90
16785;DHT22;8509;52.178;5.404;2023-06-26T13:40:53;25.40;99.90
16785;DHT22;8509;52.178;5.404;2023-06-26T13:43:21;25.20;99.90
16785;DHT22;8509;52.178;5.404;2023-06-26T13:45:49;25.20;99.90
16785;DHT22;8509;52.178;5.404;2023-06-26T13:48:15;25.30;99.90
16785;DHT22;8509;52.178;5.404;2023-06-26T13:50:42;25.50;99.90
16785;DHT22;8509;52.178;5.404;2023-06-26T13:53:08;25.60;99.90
16785;DHT22;8509;52.178;5.404;2023-06-26T13:55:35;25.90;99.90
16785;DHT22;8509;52.178;5.404;2023-06-26T13:58:06;25.80;99.90
16785;DHT22;8509;52.178;5.404;2023-06-26T14:00:33;25.80;99.90
16785;DHT22;8509;52.178;5.404;2023-06-26T14:03:05;25.50;99.90
16785;DHT22;8509;52.178;5.404;2023-06-26T14:05:34;25.70;99.90
16785;DHT22;8509;52.178;5.404;2023-06-26T14:08:03;25.50;99.90
16785;DHT22;8509;52.178;5.404;2023-06-26T14:10:30;25.50;99.90
16785;DHT22;8509;52.178;5.404;2023-06-26T14:12:55;25.70;99.90
16785;DHT22;8509;52.178;5.404;2023-06-26T14:15:21;25.80;99.90
16785;DHT22;8509;52.178;5.404;2023-06-26T14:17:47;25.70;99.90
16785;DHT22;8509;52.178;5.404;2023-06-26T14:20:17;25.50;99.90
16785;DHT22;8509;52.178;5.404;2023-06-26T14:22:46;25.50;99.90
16785;DHT22;8509;52.178;5.404;2023-06-26T14:25:12;25.60;99.90
16785;DHT22;8509;52.178;5.404;2023-06-26T14:27:38;25.60;99.90
16785;DHT22;8509;52.178;5.404;2023-06-26T14:30:05;25.50;99.90
16785;DHT22;8509;52.178;5.404;2023-06-26T14:32:31;25.20;99.90
16785;DHT22;8509;52.178;5.404;2023-06-26T14:34:57;24.90;99.90
16785;DHT22;8509;52.178;5.404;2023-06-26T14:37:23;24.70;99.90
16785;DHT22;8509;52.178;5.404;2023-06-26T14:39:50;24.90;99.90
16785;DHT22;8509;52.178;5.404;2023-06-26T14:42:15;24.80;99.90
16785;DHT22;8509;52.178;5.404;2023-06-26T14:44:41;25.00;99.90
16785;DHT22;8509;52.178;5.404;2023-06-26T14:47:07;25.20;99.90
16785;DHT22;8509;52.178;5.404;2023-06-26T14:49:32;25.40;99.90
16785;DHT22;8509;52.178;5.404;2023-06-26T14:51:58;25.20;99.90
16785;DHT22;8509;52.178;5.404;2023-06-26T14:54:25;24.80;99.90
16785;DHT22;8509;52.178;5.404;2023-06-26T14:56:50;24.70;99.90
16785;DHT22;8509;52.178;5.404;2023-06-26T14:59:17;24.50;99.90
16785;DHT22;8509;52.178;5.404;2023-06-26T15:01:44;24.20;99.90
16785;DHT22;8509;52.178;5.404;2023-06-26T15:04:09;24.10;99.90
16785;DHT22;8509;52.178;5.404;2023-06-26T15:06:35;24.10;99.90
16785;DHT22;8509;52.178;5.404;2023-06-26T15:09:01;24.30;99.90
16785;DHT22;8509;52.178;5.404;2023-06-26T15:11:28;24.30;99.90
16785;DHT22;8509;52.178;5.404;2023-06-26T15:13:55;24.40;99.90
16785;DHT22;8509;52.178;5.404;2023-06-26T15:16:21;24.40;99.90
16785;DHT22;8509;52.178;5.404;2023-06-26T15:18:47;24.30;99.90
16785;DHT22;8509;52.178;5.404;2023-06-26T15:21:13;24.10;99.90
16785;DHT22;8509;52.178;5.404;2023-06-26T15:23:39;23.90;99.90
16785;DHT22;8509;52.178;5.404;2023-06-26T15:26:04;23.90;99.90
16785;DHT22;8509;52.178;5.404;2023-06-26T15:28:30;23.70;99.90
16785;DHT22;8509;52.178;5.404;2023-06-26T15:30:55;23.60;99.90
16785;DHT22;8509;52.178;5.404;2023-06-26T15:33:21;23.50;99.90
16785;DHT22;8509;52.178;5.404;2023-06-26T15:35:47;23.50;99.90
16785;DHT22;8509;52.178;5.404;2023-06-26T15:38:13;23.50;99.90
16785;DHT22;8509;52.178;5.404;2023-06-26T15:40:38;23.50;99.90
16785;DHT22;8509;52.178;5.404;2023-06-26T15:43:04;23.70;99.90
16785;DHT22;8509;52.178;5.404;2023-06-26T15:45:30;23.70;99.90
16785;DHT22;8509;52.178;5.404;2023-06-26T15:47:56;23.80;99.90
16785;DHT22;8509;52.178;5.404;2023-06-26T15:50:24;23.90;99.90
16785;DHT22;8509;52.178;5.404;2023-06-26T15:56:29;24.00;99.90
16785;DHT22;8509;52.178;5.404;2023-06-26T15:58:58;24.10;99.90
16785;DHT22;8509;52.178;5.404;2023-06-26T16:01:23;24.00;99.90
16785;DHT22;8509;52.178;5.404;2023-06-26T16:03:51;23.90;99.90
16785;DHT22;8509;52.178;5.404;2023-06-26T16:06:18;23.70;99.90